PWSweather.com
Personal Weather Stations
Station Observations
KMOHERMA2
Stony Hill, Hermann, MO 65041

Stony HillHermann, MO 65041

Lat: 38.527, Lon: -91.414

Elevation: 896

Station Type: Davis Vantage Pro 2

High Low Average
Temperature 44.0°F6.7°C 10.7°F-11.8°C 28.4°F-2.0°C
Dew Point 35.2°F1.8°C 2.1°F-16.6°C 20.4°F-6.4°C
Winds 1.0 mph 1.6 kmh Calm Calm Calm WSWCalm WSW
Wind Gusts 16.0 mph25.7 kmh -- --
Humidity 93% 58% 72%
Pressure 30.18 in1022.0 mb 29.60 in1002.4 mb -
Precipitation 0.06 in1.5 mm - -
Hour Temp Dew Point Humidity Winds Wind Gusts Pressure Precip Precip Rate Daily Precip Total
12:00 AM 31.1°F-0.5°C 27.5°F-2.5°C 86% Calm Calm -- 29.76 in1007.8 mb 0.00 in0.0 mm 0.00 in0.0 mm 0.00 in0.0 mm
12:05 AM 31.2°F-0.4°C 27.3°F-2.6°C 85% Calm Calm -- 29.76 in1007.8 mb 0.00 in0.0 mm 0.00 in0.0 mm 0.00 in0.0 mm
12:10 AM 31.3°F-0.4°C 27.3°F-2.6°C 85% Calm Calm -- 29.75 in1007.5 mb 0.00 in0.0 mm 0.00 in0.0 mm 0.00 in0.0 mm
12:15 AM 31.4°F-0.3°C 27.7°F-2.4°C 86% Calm Calm -- 29.75 in1007.5 mb 0.00 in0.0 mm 0.00 in0.0 mm 0.00 in0.0 mm
12:20 AM 31.4°F-0.3°C 27.7°F-2.4°C 86% Calm Calm -- 29.75 in1007.5 mb 0.00 in0.0 mm 0.00 in0.0 mm 0.00 in0.0 mm
12:25 AM 31.6°F-0.2°C 27.9°F-2.3°C 86% Calm Calm -- 29.74 in1007.1 mb 0.00 in0.0 mm 0.00 in0.0 mm 0.00 in0.0 mm
12:30 AM 31.8°F-0.1°C 28.0°F-2.2°C 86% Calm Calm -- 29.74 in1007.1 mb 0.00 in0.0 mm 0.00 in0.0 mm 0.00 in0.0 mm
12:35 AM 32.1°F0.1°C 28.2°F-2.1°C 85% Calm Calm -- 29.74 in1007.1 mb 0.00 in0.0 mm 0.00 in0.0 mm 0.00 in0.0 mm
12:45 AM 32.7°F0.4°C 28.8°F-1.8°C 85% Calm Calm -- 29.73 in1006.8 mb 0.00 in0.0 mm 0.00 in0.0 mm 0.00 in0.0 mm
12:50 AM 33.0°F0.6°C 29.1°F-1.6°C 85% Calm Calm -- 29.73 in1006.8 mb 0.00 in0.0 mm 0.00 in0.0 mm 0.00 in0.0 mm
12:55 AM 33.3°F0.7°C 28.9°F-1.7°C 84% Calm Calm -- 29.73 in1006.8 mb 0.00 in0.0 mm 0.00 in0.0 mm 0.00 in0.0 mm
01:00 AM 33.6°F0.9°C 28.9°F-1.7°C 83% Calm Calm -- 29.73 in1006.8 mb 0.00 in0.0 mm 0.00 in0.0 mm 0.00 in0.0 mm
01:05 AM 33.9°F1.1°C 29.3°F-1.5°C 83% Calm Calm -- 29.72 in1006.4 mb 0.00 in0.0 mm 0.00 in0.0 mm 0.00 in0.0 mm
01:10 AM 34.2°F1.2°C 29.3°F-1.5°C 82% Calm Calm -- 29.72 in1006.4 mb 0.00 in0.0 mm 0.00 in0.0 mm 0.00 in0.0 mm
01:15 AM 34.6°F1.4°C 29.7°F-1.3°C 82% Calm Calm -- 29.72 in1006.4 mb 0.00 in0.0 mm 0.00 in0.0 mm 0.00 in0.0 mm
01:20 AM 34.9°F1.6°C 29.7°F-1.3°C 81% Calm Calm -- 29.72 in1006.4 mb 0.00 in0.0 mm 0.00 in0.0 mm 0.00 in0.0 mm
01:25 AM 35.2°F1.8°C 30.0°F-1.1°C 81% Calm Calm -- 29.72 in1006.4 mb 0.00 in0.0 mm 0.00 in0.0 mm 0.00 in0.0 mm
01:30 AM 35.6°F2.0°C 30.0°F-1.1°C 80% Calm Calm -- 29.71 in1006.1 mb 0.00 in0.0 mm 0.00 in0.0 mm 0.00 in0.0 mm
01:35 AM 35.9°F2.2°C 30.4°F-0.9°C 80% Calm Calm -- 29.71 in1006.1 mb 0.00 in0.0 mm 0.00 in0.0 mm 0.00 in0.0 mm
01:40 AM 36.4°F2.4°C 30.4°F-0.9°C 79% Calm Calm -- 29.71 in1006.1 mb 0.00 in0.0 mm 0.00 in0.0 mm 0.00 in0.0 mm
01:45 AM 36.9°F2.7°C 30.7°F-0.7°C 78% Calm Calm -- 29.70 in1005.8 mb 0.00 in0.0 mm 0.00 in0.0 mm 0.00 in0.0 mm
01:50 AM 37.4°F3.0°C 30.9°F-0.6°C 77% Calm Calm -- 29.70 in1005.8 mb 0.00 in0.0 mm 0.00 in0.0 mm 0.00 in0.0 mm
01:55 AM 37.9°F3.3°C 30.7°F-0.7°C 75% Calm Calm -- 29.69 in1005.4 mb 0.00 in0.0 mm 0.00 in0.0 mm 0.00 in0.0 mm
02:00 AM 38.3°F3.5°C 31.1°F-0.5°C 75% Calm Calm -- 29.69 in1005.4 mb 0.00 in0.0 mm 0.00 in0.0 mm 0.00 in0.0 mm
02:05 AM 38.6°F3.7°C 31.1°F-0.5°C 74% Calm Calm -- 29.69 in1005.4 mb 0.00 in0.0 mm 0.00 in0.0 mm 0.00 in0.0 mm
02:10 AM 38.9°F3.8°C 30.9°F-0.6°C 73% Calm Calm -- 29.68 in1005.1 mb 0.00 in0.0 mm 0.00 in0.0 mm 0.00 in0.0 mm
02:20 AM 39.7°F4.3°C 31.1°F-0.5°C 71% Calm Calm -- 29.68 in1005.1 mb 0.00 in0.0 mm 0.00 in0.0 mm 0.00 in0.0 mm
02:25 AM 40.0°F4.4°C 30.9°F-0.6°C 70% Calm Calm -- 29.68 in1005.1 mb 0.00 in0.0 mm 0.00 in0.0 mm 0.00 in0.0 mm
02:30 AM 40.1°F4.5°C 31.1°F-0.5°C 70% Calm Calm -- 29.69 in1005.4 mb 0.00 in0.0 mm 0.00 in0.0 mm 0.00 in0.0 mm
02:35 AM 40.3°F4.6°C 30.9°F-0.6°C 69% Calm Calm -- 29.69 in1005.4 mb 0.00 in0.0 mm 0.00 in0.0 mm 0.00 in0.0 mm
02:40 AM 40.4°F4.7°C 31.1°F-0.5°C 69% Calm Calm -- 29.68 in1005.1 mb 0.00 in0.0 mm 0.00 in0.0 mm 0.00 in0.0 mm
02:45 AM 40.6°F4.8°C 30.9°F-0.6°C 68% Calm Calm -- 29.68 in1005.1 mb 0.00 in0.0 mm 0.00 in0.0 mm 0.00 in0.0 mm
02:50 AM 40.8°F4.9°C 31.1°F-0.5°C 68% Calm Calm -- 29.68 in1005.1 mb 0.00 in0.0 mm 0.00 in0.0 mm 0.00 in0.0 mm
02:55 AM 41.0°F5.0°C 30.9°F-0.6°C 67% Calm Calm -- 29.68 in1005.1 mb 0.00 in0.0 mm 0.00 in0.0 mm 0.00 in0.0 mm
03:00 AM 41.0°F5.0°C 30.9°F-0.6°C 67% Calm Calm -- 29.68 in1005.1 mb 0.00 in0.0 mm 0.00 in0.0 mm 0.00 in0.0 mm
03:05 AM 41.0°F5.0°C 30.9°F-0.6°C 67% Calm Calm -- 29.67 in1004.7 mb 0.00 in0.0 mm 0.00 in0.0 mm 0.00 in0.0 mm
03:10 AM 41.1°F5.1°C 30.7°F-0.7°C 66% Calm Calm -- 29.66 in1004.4 mb 0.00 in0.0 mm 0.00 in0.0 mm 0.00 in0.0 mm
03:15 AM 41.1°F5.1°C 30.7°F-0.7°C 66% Calm Calm -- 29.66 in1004.4 mb 0.00 in0.0 mm 0.00 in0.0 mm 0.00 in0.0 mm
03:20 AM 41.1°F5.1°C 30.7°F-0.7°C 66% Calm Calm -- 29.66 in1004.4 mb 0.00 in0.0 mm 0.00 in0.0 mm 0.00 in0.0 mm
03:25 AM 41.2°F5.1°C 30.7°F-0.7°C 66% Calm Calm -- 29.66 in1004.4 mb 0.00 in0.0 mm 0.00 in0.0 mm 0.00 in0.0 mm
03:30 AM 41.2°F5.1°C 30.7°F-0.7°C 66% Calm Calm -- 29.66 in1004.4 mb 0.00 in0.0 mm 0.00 in0.0 mm 0.00 in0.0 mm
03:35 AM 41.2°F5.1°C 30.4°F-0.9°C 65% Calm Calm -- 29.66 in1004.4 mb 0.00 in0.0 mm 0.00 in0.0 mm 0.00 in0.0 mm
03:40 AM 41.5°F5.3°C 30.7°F-0.7°C 65% Calm Calm -- 29.65 in1004.1 mb 0.00 in0.0 mm 0.00 in0.0 mm 0.00 in0.0 mm
03:45 AM 41.6°F5.3°C 30.7°F-0.7°C 65% Calm Calm -- 29.66 in1004.4 mb 0.00 in0.0 mm 0.00 in0.0 mm 0.00 in0.0 mm
03:50 AM 41.6°F5.3°C 30.2°F-1.0°C 64% Calm Calm -- 29.66 in1004.4 mb 0.00 in0.0 mm 0.00 in0.0 mm 0.00 in0.0 mm
03:55 AM 41.8°F5.4°C 30.4°F-0.9°C 64% Calm Calm -- 29.65 in1004.1 mb 0.00 in0.0 mm 0.00 in0.0 mm 0.00 in0.0 mm
04:00 AM 41.7°F5.4°C 30.9°F-0.6°C 65% Calm Calm -- 29.64 in1003.7 mb 0.00 in0.0 mm 0.00 in0.0 mm 0.00 in0.0 mm
04:05 AM 41.6°F5.3°C 30.7°F-0.7°C 65% Calm Calm -- 29.63 in1003.4 mb 0.00 in0.0 mm 0.00 in0.0 mm 0.00 in0.0 mm
04:10 AM 41.4°F5.2°C 30.6°F-0.8°C 65% Calm Calm -- 29.63 in1003.4 mb 0.00 in0.0 mm 0.00 in0.0 mm 0.00 in0.0 mm
04:15 AM 41.5°F5.3°C 30.7°F-0.7°C 65% Calm Calm -- 29.62 in1003.0 mb 0.00 in0.0 mm 0.00 in0.0 mm 0.00 in0.0 mm
04:20 AM 41.4°F5.2°C 30.6°F-0.8°C 65% Calm Calm -- 29.63 in1003.4 mb 0.00 in0.0 mm 0.00 in0.0 mm 0.00 in0.0 mm
04:25 AM 41.5°F5.3°C 30.2°F-1.0°C 64% Calm Calm -- 29.63 in1003.4 mb 0.00 in0.0 mm 0.00 in0.0 mm 0.00 in0.0 mm
04:30 AM 41.5°F5.3°C 30.2°F-1.0°C 64% Calm Calm -- 29.61 in1002.7 mb 0.00 in0.0 mm 0.00 in0.0 mm 0.00 in0.0 mm
04:35 AM 41.6°F5.3°C 30.2°F-1.0°C 64% Calm Calm -- 29.61 in1002.7 mb 0.00 in0.0 mm 0.00 in0.0 mm 0.00 in0.0 mm
04:40 AM 41.7°F5.4°C 30.4°F-0.9°C 64% Calm Calm -- 29.60 in1002.4 mb 0.00 in0.0 mm 0.00 in0.0 mm 0.00 in0.0 mm
04:45 AM 41.7°F5.4°C 30.0°F-1.1°C 63% Calm Calm -- 29.60 in1002.4 mb 0.00 in0.0 mm 0.00 in0.0 mm 0.00 in0.0 mm
04:50 AM 41.7°F5.4°C 30.0°F-1.1°C 63% Calm Calm -- 29.61 in1002.7 mb 0.00 in0.0 mm 0.00 in0.0 mm 0.00 in0.0 mm
04:55 AM 41.9°F5.5°C 30.2°F-1.0°C 63% Calm Calm -- 29.61 in1002.7 mb 0.00 in0.0 mm 0.00 in0.0 mm 0.00 in0.0 mm
05:00 AM 42.0°F5.6°C 30.4°F-0.9°C 63% Calm Calm -- 29.61 in1002.7 mb 0.00 in0.0 mm 0.00 in0.0 mm 0.00 in0.0 mm
05:05 AM 42.0°F5.6°C 30.0°F-1.1°C 62% Calm Calm -- 29.62 in1003.0 mb 0.00 in0.0 mm 0.00 in0.0 mm 0.00 in0.0 mm
05:10 AM 42.1°F5.6°C 30.0°F-1.1°C 62% Calm Calm -- 29.62 in1003.0 mb 0.00 in0.0 mm 0.00 in0.0 mm 0.00 in0.0 mm
05:15 AM 42.2°F5.7°C 30.2°F-1.0°C 62% Calm Calm -- 29.61 in1002.7 mb 0.00 in0.0 mm 0.00 in0.0 mm 0.00 in0.0 mm
05:20 AM 42.3°F5.7°C 30.2°F-1.0°C 62% Calm Calm -- 29.61 in1002.7 mb 0.00 in0.0 mm 0.00 in0.0 mm 0.00 in0.0 mm
05:25 AM 42.4°F5.8°C 30.0°F-1.1°C 61% Calm Calm -- 29.61 in1002.7 mb 0.00 in0.0 mm 0.00 in0.0 mm 0.00 in0.0 mm
05:30 AM 42.6°F5.9°C 30.2°F-1.0°C 61% Calm Calm -- 29.61 in1002.7 mb 0.00 in0.0 mm 0.00 in0.0 mm 0.00 in0.0 mm
05:35 AM 42.7°F5.9°C 30.2°F-1.0°C 61% Calm Calm -- 29.61 in1002.7 mb 0.00 in0.0 mm 0.00 in0.0 mm 0.00 in0.0 mm
05:40 AM 42.9°F6.1°C 30.0°F-1.1°C 60% Calm Calm -- 29.61 in1002.7 mb 0.00 in0.0 mm 0.00 in0.0 mm 0.00 in0.0 mm
05:45 AM 43.0°F6.1°C 30.0°F-1.1°C 60% Calm Calm -- 29.61 in1002.7 mb 0.00 in0.0 mm 0.00 in0.0 mm 0.00 in0.0 mm
05:50 AM 43.0°F6.1°C 30.0°F-1.1°C 60% Calm Calm -- 29.61 in1002.7 mb 0.00 in0.0 mm 0.00 in0.0 mm 0.00 in0.0 mm
05:55 AM 43.1°F6.2°C 29.8°F-1.2°C 59% Calm Calm -- 29.61 in1002.7 mb 0.00 in0.0 mm 0.00 in0.0 mm 0.00 in0.0 mm
06:00 AM 43.5°F6.4°C 30.2°F-1.0°C 59% Calm Calm -- 29.60 in1002.4 mb 0.00 in0.0 mm 0.00 in0.0 mm 0.00 in0.0 mm
06:05 AM 43.8°F6.6°C 30.0°F-1.1°C 58% Calm Calm -- 29.61 in1002.7 mb 0.00 in0.0 mm 0.00 in0.0 mm 0.00 in0.0 mm
06:10 AM 43.9°F6.6°C 30.0°F-1.1°C 58% Calm Calm -- 29.61 in1002.7 mb 0.00 in0.0 mm 0.00 in0.0 mm 0.00 in0.0 mm
06:15 AM 43.8°F6.6°C 30.0°F-1.1°C 58% Calm Calm -- 29.61 in1002.7 mb 0.00 in0.0 mm 0.00 in0.0 mm 0.00 in0.0 mm
06:20 AM 43.8°F6.6°C 30.0°F-1.1°C 58% Calm Calm -- 29.61 in1002.7 mb 0.00 in0.0 mm 0.00 in0.0 mm 0.00 in0.0 mm
06:25 AM 44.0°F6.7°C 30.2°F-1.0°C 58% Calm Calm -- 29.61 in1002.7 mb 0.00 in0.0 mm 0.00 in0.0 mm 0.00 in0.0 mm
06:30 AM 44.0°F6.7°C 30.7°F-0.7°C 59% Calm Calm -- 29.61 in1002.7 mb 0.00 in0.0 mm 0.00 in0.0 mm 0.00 in0.0 mm
06:35 AM 43.9°F6.6°C 30.6°F-0.8°C 59% Calm Calm -- 29.61 in1002.7 mb 0.00 in0.0 mm 0.00 in0.0 mm 0.00 in0.0 mm
06:40 AM 43.8°F6.6°C 30.9°F-0.6°C 60% Calm Calm -- 29.62 in1003.0 mb 0.00 in0.0 mm 0.00 in0.0 mm 0.00 in0.0 mm
06:45 AM 43.7°F6.5°C 30.7°F-0.7°C 60% Calm Calm -- 29.62 in1003.0 mb 0.00 in0.0 mm 0.00 in0.0 mm 0.00 in0.0 mm
06:50 AM 43.6°F6.4°C 31.5°F-0.3°C 62% Calm Calm -- 29.62 in1003.0 mb 0.00 in0.0 mm 0.00 in0.0 mm 0.00 in0.0 mm
06:55 AM 43.4°F6.3°C 31.6°F-0.2°C 63% Calm Calm -- 29.62 in1003.0 mb 0.00 in0.0 mm 0.00 in0.0 mm 0.00 in0.0 mm
07:00 AM 43.2°F6.2°C 32.2°F0.1°C 65% Calm Calm -- 29.63 in1003.4 mb 0.00 in0.0 mm 0.00 in0.0 mm 0.00 in0.0 mm
07:05 AM 43.2°F6.2°C 32.5°F0.3°C 66% Calm Calm -- 29.63 in1003.4 mb 0.00 in0.0 mm 0.00 in0.0 mm 0.00 in0.0 mm
07:10 AM 43.1°F6.2°C 32.5°F0.3°C 66% Calm Calm -- 29.63 in1003.4 mb 0.00 in0.0 mm 0.00 in0.0 mm 0.00 in0.0 mm
07:15 AM 43.0°F6.1°C 32.4°F0.2°C 66% Calm Calm -- 29.63 in1003.4 mb 0.00 in0.0 mm 0.00 in0.0 mm 0.00 in0.0 mm
07:20 AM 42.8°F6.0°C 32.2°F0.1°C 66% Calm Calm -- 29.63 in1003.4 mb 0.00 in0.0 mm 0.00 in0.0 mm 0.00 in0.0 mm
07:25 AM 42.9°F6.1°C 32.4°F0.2°C 66% Calm Calm -- 29.64 in1003.7 mb 0.00 in0.0 mm 0.00 in0.0 mm 0.00 in0.0 mm
07:30 AM 42.8°F6.0°C 32.2°F0.1°C 66% Calm Calm -- 29.64 in1003.7 mb 0.00 in0.0 mm 0.00 in0.0 mm 0.00 in0.0 mm
07:35 AM 42.8°F6.0°C 32.2°F0.1°C 66% Calm Calm -- 29.65 in1004.1 mb 0.00 in0.0 mm 0.00 in0.0 mm 0.00 in0.0 mm
07:40 AM 42.6°F5.9°C 32.0°F0.0°C 66% Calm Calm -- 29.65 in1004.1 mb 0.00 in0.0 mm 0.00 in0.0 mm 0.00 in0.0 mm
07:45 AM 42.5°F5.8°C 32.7°F0.4°C 68% Calm Calm -- 29.65 in1004.1 mb 0.00 in0.0 mm 0.00 in0.0 mm 0.00 in0.0 mm
07:50 AM 42.3°F5.7°C 32.9°F0.5°C 69% Calm Calm -- 29.65 in1004.1 mb 0.00 in0.0 mm 0.00 in0.0 mm 0.00 in0.0 mm
07:55 AM 42.1°F5.6°C 33.4°F0.8°C 71% Calm Calm -- 29.65 in1004.1 mb 0.00 in0.0 mm 0.00 in0.0 mm 0.00 in0.0 mm
08:00 AM 42.0°F5.6°C 34.0°F1.1°C 73% Calm Calm -- 29.66 in1004.4 mb 0.00 in0.0 mm 0.00 in0.0 mm 0.00 in0.0 mm
08:05 AM 41.7°F5.4°C 34.3°F1.3°C 75% Calm Calm -- 29.66 in1004.4 mb 0.00 in0.0 mm 0.00 in0.0 mm 0.00 in0.0 mm
08:10 AM 41.3°F5.2°C 34.7°F1.5°C 77% Calm Calm -- 29.66 in1004.4 mb 0.00 in0.0 mm 0.00 in0.0 mm 0.00 in0.0 mm
08:15 AM 40.9°F4.9°C 34.9°F1.6°C 79% Calm Calm -- 29.66 in1004.4 mb 0.00 in0.0 mm 0.00 in0.0 mm 0.00 in0.0 mm
08:20 AM 40.5°F4.7°C 34.7°F1.5°C 80% Calm Calm -- 29.67 in1004.7 mb 0.00 in0.0 mm 0.00 in0.0 mm 0.00 in0.0 mm
08:25 AM 40.2°F4.6°C 35.2°F1.8°C 82% Calm Calm -- 29.68 in1005.1 mb 0.01 in0.3 mm 0.12 in3.0 mm 0.01 in0.3 mm
08:30 AM 39.8°F4.3°C 35.2°F1.8°C 84% Calm Calm -- 29.68 in1005.1 mb 0.01 in0.3 mm 0.00 in0.0 mm 0.01 in0.3 mm
08:35 AM 39.4°F4.1°C 35.2°F1.8°C 85% Calm Calm -- 29.68 in1005.1 mb 0.02 in0.5 mm 0.12 in3.0 mm 0.02 in0.5 mm
08:40 AM 39.1°F3.9°C 35.2°F1.8°C 86% Calm Calm -- 29.68 in1005.1 mb 0.02 in0.5 mm 0.00 in0.0 mm 0.02 in0.5 mm
08:45 AM 38.8°F3.8°C 35.2°F1.8°C 87% Calm Calm -- 29.68 in1005.1 mb 0.02 in0.5 mm 0.00 in0.0 mm 0.02 in0.5 mm
08:50 AM 38.5°F3.6°C 35.2°F1.8°C 88% Calm Calm -- 29.69 in1005.4 mb 0.03 in0.8 mm 0.12 in3.0 mm 0.03 in0.8 mm
08:55 AM 38.1°F3.4°C 34.9°F1.6°C 88% Calm Calm -- 29.69 in1005.4 mb 0.03 in0.8 mm 0.00 in0.0 mm 0.03 in0.8 mm
09:00 AM 37.8°F3.2°C 34.9°F1.6°C 89% Calm Calm -- 29.69 in1005.4 mb 0.03 in0.8 mm 0.00 in0.0 mm 0.03 in0.8 mm
09:05 AM 37.6°F3.1°C 34.7°F1.5°C 89% Calm Calm -- 29.70 in1005.8 mb 0.04 in1.0 mm 0.12 in3.0 mm 0.04 in1.0 mm
09:10 AM 37.5°F3.1°C 34.9°F1.6°C 90% Calm Calm -- 29.70 in1005.8 mb 0.04 in1.0 mm 0.00 in0.0 mm 0.04 in1.0 mm
09:15 AM 37.2°F2.9°C 34.5°F1.4°C 90% Calm Calm -- 29.70 in1005.8 mb 0.04 in1.0 mm 0.00 in0.0 mm 0.04 in1.0 mm
09:20 AM 37.0°F2.8°C 34.3°F1.3°C 90% Calm Calm -- 29.71 in1006.1 mb 0.04 in1.0 mm 0.00 in0.0 mm 0.04 in1.0 mm
09:25 AM 36.9°F2.7°C 34.5°F1.4°C 91% Calm Calm -- 29.71 in1006.1 mb 0.04 in1.0 mm 0.00 in0.0 mm 0.05 in1.3 mm
09:30 AM 36.8°F2.7°C 34.5°F1.4°C 91% Calm Calm -- 29.71 in1006.1 mb 0.04 in1.0 mm 0.00 in0.0 mm 0.05 in1.3 mm
09:35 AM 36.7°F2.6°C 34.3°F1.3°C 91% Calm Calm -- 29.71 in1006.1 mb 0.03 in0.8 mm 0.00 in0.0 mm 0.05 in1.3 mm
09:40 AM 36.7°F2.6°C 34.3°F1.3°C 91% Calm Calm -- 29.71 in1006.1 mb 0.03 in0.8 mm 0.00 in0.0 mm 0.05 in1.3 mm
09:45 AM 36.7°F2.6°C 34.5°F1.4°C 92% Calm Calm -- 29.71 in1006.1 mb 0.03 in0.8 mm 0.00 in0.0 mm 0.05 in1.3 mm
09:50 AM 36.6°F2.6°C 34.5°F1.4°C 92% Calm Calm -- 29.71 in1006.1 mb 0.02 in0.5 mm 0.00 in0.0 mm 0.05 in1.3 mm
09:55 AM 36.4°F2.4°C 34.2°F1.2°C 92% Calm Calm -- 29.71 in1006.1 mb 0.02 in0.5 mm 0.00 in0.0 mm 0.05 in1.3 mm
10:00 AM 36.3°F2.4°C 34.2°F1.2°C 92% Calm Calm -- 29.71 in1006.1 mb 0.02 in0.5 mm 0.00 in0.0 mm 0.05 in1.3 mm
10:05 AM 36.3°F2.4°C 34.2°F1.2°C 92% Calm Calm -- 29.71 in1006.1 mb 0.01 in0.3 mm 0.00 in0.0 mm 0.05 in1.3 mm
10:10 AM 36.2°F2.3°C 34.0°F1.1°C 92% Calm Calm -- 29.72 in1006.4 mb 0.01 in0.3 mm 0.00 in0.0 mm 0.05 in1.3 mm
10:15 AM 36.2°F2.3°C 34.0°F1.1°C 92% Calm Calm -- 29.72 in1006.4 mb 0.01 in0.3 mm 0.00 in0.0 mm 0.05 in1.3 mm
10:20 AM 36.2°F2.3°C 34.0°F1.1°C 92% Calm Calm -- 29.72 in1006.4 mb 0.01 in0.3 mm 0.00 in0.0 mm 0.05 in1.3 mm
10:25 AM 36.2°F2.3°C 34.0°F1.1°C 92% Calm Calm -- 29.72 in1006.4 mb 0.00 in0.0 mm 0.00 in0.0 mm 0.05 in1.3 mm
10:30 AM 36.2°F2.3°C 34.0°F1.1°C 92% Calm Calm -- 29.72 in1006.4 mb 0.00 in0.0 mm 0.00 in0.0 mm 0.05 in1.3 mm
10:35 AM 36.3°F2.4°C 34.5°F1.4°C 93% Calm Calm -- 29.73 in1006.8 mb 0.00 in0.0 mm 0.00 in0.0 mm 0.05 in1.3 mm
10:40 AM 36.3°F2.4°C 34.5°F1.4°C 93% Calm Calm -- 29.73 in1006.8 mb 0.00 in0.0 mm 0.00 in0.0 mm 0.05 in1.3 mm
10:45 AM 36.4°F2.4°C 34.5°F1.4°C 93% Calm Calm -- 29.73 in1006.8 mb 0.00 in0.0 mm 0.00 in0.0 mm 0.05 in1.3 mm
10:50 AM 36.5°F2.5°C 34.7°F1.5°C 93% Calm Calm -- 29.72 in1006.4 mb 0.00 in0.0 mm 0.00 in0.0 mm 0.05 in1.3 mm
10:55 AM 36.5°F2.5°C 34.7°F1.5°C 93% Calm Calm -- 29.72 in1006.4 mb 0.00 in0.0 mm 0.00 in0.0 mm 0.05 in1.3 mm
11:00 AM 36.5°F2.5°C 34.7°F1.5°C 93% Calm Calm -- 29.72 in1006.4 mb 0.00 in0.0 mm 0.00 in0.0 mm 0.05 in1.3 mm
11:05 AM 36.5°F2.5°C 34.7°F1.5°C 93% Calm Calm -- 29.73 in1006.8 mb 0.00 in0.0 mm 0.00 in0.0 mm 0.05 in1.3 mm
11:10 AM 36.5°F2.5°C 34.7°F1.5°C 93% Calm Calm -- 29.73 in1006.8 mb 0.00 in0.0 mm 0.00 in0.0 mm 0.05 in1.3 mm
11:15 AM 36.5°F2.5°C 34.7°F1.5°C 93% Calm Calm -- 29.73 in1006.8 mb 0.00 in0.0 mm 0.00 in0.0 mm 0.05 in1.3 mm
11:20 AM 36.4°F2.4°C 34.5°F1.4°C 93% Calm Calm -- 29.74 in1007.1 mb 0.00 in0.0 mm 0.00 in0.0 mm 0.05 in1.3 mm
11:25 AM 36.3°F2.4°C 34.2°F1.2°C 92% Calm Calm -- 29.74 in1007.1 mb 0.00 in0.0 mm 0.00 in0.0 mm 0.05 in1.3 mm
11:30 AM 36.1°F2.3°C 34.0°F1.1°C 92% Calm Calm -- 29.75 in1007.5 mb 0.00 in0.0 mm 0.00 in0.0 mm 0.05 in1.3 mm
11:35 AM 35.5°F1.9°C 33.1°F0.6°C 91% Calm Calm -- 29.76 in1007.8 mb 0.01 in0.3 mm 0.12 in3.0 mm 0.06 in1.5 mm
11:40 AM 34.7°F1.5°C 31.8°F-0.1°C 89% Calm Calm -- 29.76 in1007.8 mb 0.01 in0.3 mm 0.00 in0.0 mm 0.06 in1.5 mm
11:45 AM 34.0°F1.1°C 30.7°F-0.7°C 88% Calm Calm -- 29.77 in1008.1 mb 0.01 in0.3 mm 0.00 in0.0 mm 0.06 in1.5 mm
11:50 AM 33.3°F0.7°C 29.3°F-1.5°C 85% Calm Calm -- 29.77 in1008.1 mb 0.01 in0.3 mm 0.00 in0.0 mm 0.06 in1.5 mm
11:55 AM 32.9°F0.5°C 28.6°F-1.9°C 84% Calm Calm -- 29.78 in1008.5 mb 0.01 in0.3 mm 0.00 in0.0 mm 0.06 in1.5 mm
12:00 PM 32.8°F0.4°C 28.4°F-2.0°C 84% Calm Calm -- 29.79 in1008.8 mb 0.01 in0.3 mm 0.00 in0.0 mm 0.06 in1.5 mm
12:05 PM 32.1°F0.1°C 27.0°F-2.8°C 81% Calm Calm -- 29.80 in1009.1 mb 0.01 in0.3 mm 0.00 in0.0 mm 0.06 in1.5 mm
12:10 PM 31.4°F-0.3°C 26.1°F-3.3°C 80% Calm Calm -- 29.80 in1009.1 mb 0.01 in0.3 mm 0.00 in0.0 mm 0.06 in1.5 mm
12:15 PM 31.4°F-0.3°C 26.1°F-3.3°C 80% Calm Calm -- 29.80 in1009.1 mb 0.01 in0.3 mm 0.00 in0.0 mm 0.06 in1.5 mm
12:20 PM 31.3°F-0.4°C 25.9°F-3.4°C 80% Calm Calm -- 29.80 in1009.1 mb 0.01 in0.3 mm 0.00 in0.0 mm 0.06 in1.5 mm
12:25 PM 30.9°F-0.6°C 25.2°F-3.8°C 79% Calm Calm -- 29.80 in1009.1 mb 0.01 in0.3 mm 0.00 in0.0 mm 0.06 in1.5 mm
12:30 PM 30.7°F-0.7°C 24.6°F-4.1°C 78% Calm Calm -- 29.80 in1009.1 mb 0.01 in0.3 mm 0.00 in0.0 mm 0.06 in1.5 mm
12:35 PM 30.6°F-0.8°C 24.8°F-4.0°C 79% Calm Calm -- 29.80 in1009.1 mb 0.00 in0.0 mm 0.00 in0.0 mm 0.06 in1.5 mm
12:40 PM 30.4°F-0.9°C 24.4°F-4.2°C 78% Calm Calm -- 29.81 in1009.5 mb 0.00 in0.0 mm 0.00 in0.0 mm 0.06 in1.5 mm
12:45 PM 30.0°F-1.1°C 24.1°F-4.4°C 78% Calm Calm -- 29.81 in1009.5 mb 0.00 in0.0 mm 0.00 in0.0 mm 0.06 in1.5 mm
12:50 PM 29.5°F-1.4°C 23.7°F-4.6°C 79% Calm Calm -- 29.81 in1009.5 mb 0.00 in0.0 mm 0.00 in0.0 mm 0.06 in1.5 mm
12:55 PM 29.2°F-1.6°C 23.4°F-4.8°C 79% Calm Calm -- 29.82 in1009.8 mb 0.00 in0.0 mm 0.00 in0.0 mm 0.06 in1.5 mm
01:00 PM 28.9°F-1.7°C 23.2°F-4.9°C 79% Calm Calm -- 29.82 in1009.8 mb 0.00 in0.0 mm 0.00 in0.0 mm 0.06 in1.5 mm
01:05 PM 28.6°F-1.9°C 22.8°F-5.1°C 79% 1.0 mph W1.6 kmh W 16.0 mph25.7 kmh 29.82 in1009.8 mb 0.00 in0.0 mm 0.00 in0.0 mm 0.06 in1.5 mm
01:10 PM 28.3°F-2.1°C 22.3°F-5.4°C 78% Calm Calm -- 29.82 in1009.8 mb 0.00 in0.0 mm 0.00 in0.0 mm 0.06 in1.5 mm
01:15 PM 28.0°F-2.2°C 22.1°F-5.5°C 78% Calm Calm -- 29.82 in1009.8 mb 0.00 in0.0 mm 0.00 in0.0 mm 0.06 in1.5 mm
01:20 PM 27.7°F-2.4°C 21.4°F-5.9°C 77% Calm Calm -- 29.82 in1009.8 mb 0.00 in0.0 mm 0.00 in0.0 mm 0.06 in1.5 mm
01:25 PM 27.6°F-2.4°C 21.7°F-5.7°C 78% Calm Calm -- 29.82 in1009.8 mb 0.00 in0.0 mm 0.00 in0.0 mm 0.06 in1.5 mm
01:30 PM 27.2°F-2.7°C 20.8°F-6.2°C 77% Calm Calm -- 29.84 in1010.5 mb 0.00 in0.0 mm 0.00 in0.0 mm 0.06 in1.5 mm
01:35 PM 26.9°F-2.8°C 20.7°F-6.3°C 77% Calm Calm -- 29.84 in1010.5 mb 0.00 in0.0 mm 0.00 in0.0 mm 0.06 in1.5 mm
01:40 PM 26.7°F-2.9°C 20.5°F-6.4°C 77% Calm Calm -- 29.84 in1010.5 mb 0.00 in0.0 mm 0.00 in0.0 mm 0.06 in1.5 mm
01:45 PM 26.5°F-3.1°C 20.1°F-6.6°C 77% Calm Calm -- 29.85 in1010.8 mb 0.00 in0.0 mm 0.00 in0.0 mm 0.06 in1.5 mm
01:50 PM 26.3°F-3.2°C 19.8°F-6.8°C 76% Calm Calm -- 29.85 in1010.8 mb 0.00 in0.0 mm 0.00 in0.0 mm 0.06 in1.5 mm
01:55 PM 26.3°F-3.2°C 19.8°F-6.8°C 76% Calm Calm -- 29.85 in1010.8 mb 0.00 in0.0 mm 0.00 in0.0 mm 0.06 in1.5 mm
02:00 PM 26.2°F-3.2°C 19.8°F-6.8°C 76% Calm Calm -- 29.85 in1010.8 mb 0.00 in0.0 mm 0.00 in0.0 mm 0.06 in1.5 mm
02:05 PM 26.1°F-3.3°C 19.2°F-7.1°C 75% Calm Calm -- 29.85 in1010.8 mb 0.00 in0.0 mm 0.00 in0.0 mm 0.06 in1.5 mm
02:10 PM 26.0°F-3.3°C 19.2°F-7.1°C 75% Calm Calm -- 29.85 in1010.8 mb 0.00 in0.0 mm 0.00 in0.0 mm 0.06 in1.5 mm
02:15 PM 25.7°F-3.5°C 18.0°F-7.8°C 72% Calm Calm -- 29.86 in1011.2 mb 0.00 in0.0 mm 0.00 in0.0 mm 0.06 in1.5 mm
02:20 PM 25.5°F-3.6°C 18.1°F-7.7°C 73% Calm Calm -- 29.86 in1011.2 mb 0.00 in0.0 mm 0.00 in0.0 mm 0.06 in1.5 mm
02:25 PM 25.6°F-3.6°C 18.1°F-7.7°C 73% Calm Calm -- 29.86 in1011.2 mb 0.00 in0.0 mm 0.00 in0.0 mm 0.06 in1.5 mm
02:30 PM 25.7°F-3.5°C 17.6°F-8.0°C 71% Calm Calm -- 29.86 in1011.2 mb 0.00 in0.0 mm 0.00 in0.0 mm 0.06 in1.5 mm
02:35 PM 26.1°F-3.3°C 18.0°F-7.8°C 71% Calm Calm -- 29.86 in1011.2 mb 0.00 in0.0 mm 0.00 in0.0 mm 0.06 in1.5 mm
02:40 PM 25.7°F-3.5°C 16.9°F-8.4°C 69% Calm Calm -- 29.87 in1011.5 mb 0.00 in0.0 mm 0.00 in0.0 mm 0.06 in1.5 mm
02:45 PM 25.4°F-3.7°C 16.7°F-8.5°C 69% Calm Calm -- 29.87 in1011.5 mb 0.00 in0.0 mm 0.00 in0.0 mm 0.06 in1.5 mm
02:50 PM 25.3°F-3.7°C 17.2°F-8.2°C 71% Calm Calm -- 29.87 in1011.5 mb 0.00 in0.0 mm 0.00 in0.0 mm 0.06 in1.5 mm
02:55 PM 25.0°F-3.9°C 16.9°F-8.4°C 71% Calm Calm -- 29.88 in1011.9 mb 0.00 in0.0 mm 0.00 in0.0 mm 0.06 in1.5 mm
03:00 PM 25.0°F-3.9°C 16.9°F-8.4°C 71% Calm Calm -- 29.89 in1012.2 mb 0.00 in0.0 mm 0.00 in0.0 mm 0.06 in1.5 mm
03:05 PM 24.7°F-4.1°C 16.3°F-8.7°C 70% Calm Calm -- 29.89 in1012.2 mb 0.00 in0.0 mm 0.00 in0.0 mm 0.06 in1.5 mm
03:10 PM 24.3°F-4.3°C 15.6°F-9.1°C 69% Calm Calm -- 29.89 in1012.2 mb 0.00 in0.0 mm 0.00 in0.0 mm 0.06 in1.5 mm
03:15 PM 24.0°F-4.4°C 15.4°F-9.2°C 69% Calm Calm -- 29.89 in1012.2 mb 0.00 in0.0 mm 0.00 in0.0 mm 0.06 in1.5 mm
03:20 PM 23.9°F-4.5°C 15.6°F-9.1°C 70% Calm Calm -- 29.89 in1012.2 mb 0.00 in0.0 mm 0.00 in0.0 mm 0.06 in1.5 mm
03:25 PM 23.8°F-4.6°C 15.8°F-9.0°C 71% Calm Calm -- 29.89 in1012.2 mb 0.00 in0.0 mm 0.00 in0.0 mm 0.06 in1.5 mm
03:30 PM 23.8°F-4.6°C 15.8°F-9.0°C 71% Calm Calm -- 29.90 in1012.5 mb 0.00 in0.0 mm 0.00 in0.0 mm 0.06 in1.5 mm
03:35 PM 23.7°F-4.6°C 16.0°F-8.9°C 72% Calm Calm -- 29.90 in1012.5 mb 0.00 in0.0 mm 0.00 in0.0 mm 0.06 in1.5 mm
03:40 PM 23.2°F-4.9°C 15.3°F-9.3°C 71% Calm Calm -- 29.90 in1012.5 mb 0.00 in0.0 mm 0.00 in0.0 mm 0.06 in1.5 mm
03:45 PM 22.9°F-5.1°C 14.9°F-9.5°C 71% Calm Calm -- 29.91 in1012.9 mb 0.00 in0.0 mm 0.00 in0.0 mm 0.06 in1.5 mm
03:50 PM 22.6°F-5.2°C 13.6°F-10.2°C 68% Calm Calm -- 29.91 in1012.9 mb 0.00 in0.0 mm 0.00 in0.0 mm 0.06 in1.5 mm
03:55 PM 22.5°F-5.3°C 13.5°F-10.3°C 68% Calm Calm -- 29.91 in1012.9 mb 0.00 in0.0 mm 0.00 in0.0 mm 0.06 in1.5 mm
04:00 PM 22.4°F-5.3°C 13.1°F-10.5°C 67% Calm Calm -- 29.92 in1013.2 mb 0.00 in0.0 mm 0.00 in0.0 mm 0.06 in1.5 mm
04:05 PM 22.4°F-5.3°C 13.1°F-10.5°C 67% Calm Calm -- 29.92 in1013.2 mb 0.00 in0.0 mm 0.00 in0.0 mm 0.06 in1.5 mm
04:10 PM 22.2°F-5.4°C 13.3°F-10.4°C 68% Calm Calm -- 29.93 in1013.5 mb 0.00 in0.0 mm 0.00 in0.0 mm 0.06 in1.5 mm
04:15 PM 22.2°F-5.4°C 13.6°F-10.2°C 69% Calm Calm -- 29.93 in1013.5 mb 0.00 in0.0 mm 0.00 in0.0 mm 0.06 in1.5 mm
04:20 PM 22.2°F-5.4°C 14.0°F-10.0°C 70% Calm Calm -- 29.93 in1013.5 mb 0.00 in0.0 mm 0.00 in0.0 mm 0.06 in1.5 mm
04:25 PM 22.0°F-5.6°C 12.9°F-10.6°C 68% Calm Calm -- 29.94 in1013.9 mb 0.00 in0.0 mm 0.00 in0.0 mm 0.06 in1.5 mm
04:30 PM 21.6°F-5.8°C 12.4°F-10.9°C 67% Calm Calm -- 29.94 in1013.9 mb 0.00 in0.0 mm 0.00 in0.0 mm 0.06 in1.5 mm
04:35 PM 21.4°F-5.9°C 12.6°F-10.8°C 68% Calm Calm -- 29.95 in1014.2 mb 0.00 in0.0 mm 0.00 in0.0 mm 0.06 in1.5 mm
04:40 PM 21.2°F-6.0°C 12.4°F-10.9°C 68% Calm Calm -- 29.95 in1014.2 mb 0.00 in0.0 mm 0.00 in0.0 mm 0.06 in1.5 mm
04:45 PM 21.1°F-6.1°C 12.6°F-10.8°C 69% Calm Calm -- 29.96 in1014.6 mb 0.00 in0.0 mm 0.00 in0.0 mm 0.06 in1.5 mm
04:50 PM 21.0°F-6.1°C 12.7°F-10.7°C 70% Calm Calm -- 29.96 in1014.6 mb 0.00 in0.0 mm 0.00 in0.0 mm 0.06 in1.5 mm
04:55 PM 20.8°F-6.2°C 12.9°F-10.6°C 71% Calm Calm -- 29.96 in1014.6 mb 0.00 in0.0 mm 0.00 in0.0 mm 0.06 in1.5 mm
05:00 PM 20.5°F-6.4°C 11.7°F-11.3°C 68% Calm Calm -- 29.96 in1014.6 mb 0.00 in0.0 mm 0.00 in0.0 mm 0.06 in1.5 mm
05:05 PM 20.1°F-6.6°C 10.9°F-11.7°C 67% Calm Calm -- 29.97 in1014.9 mb 0.00 in0.0 mm 0.00 in0.0 mm 0.06 in1.5 mm
05:10 PM 20.0°F-6.7°C 11.1°F-11.6°C 68% Calm Calm -- 29.97 in1014.9 mb 0.00 in0.0 mm 0.00 in0.0 mm 0.06 in1.5 mm
05:15 PM 20.0°F-6.7°C 11.5°F-11.4°C 69% Calm Calm -- 29.97 in1014.9 mb 0.00 in0.0 mm 0.00 in0.0 mm 0.06 in1.5 mm
05:20 PM 19.9°F-6.7°C 11.1°F-11.6°C 68% Calm Calm -- 29.97 in1014.9 mb 0.00 in0.0 mm 0.00 in0.0 mm 0.06 in1.5 mm
05:25 PM 19.6°F-6.9°C 10.8°F-11.8°C 68% Calm Calm -- 29.98 in1015.2 mb 0.00 in0.0 mm 0.00 in0.0 mm 0.06 in1.5 mm
05:30 PM 19.5°F-6.9°C 11.1°F-11.6°C 69% Calm Calm -- 29.98 in1015.2 mb 0.00 in0.0 mm 0.00 in0.0 mm 0.06 in1.5 mm
05:35 PM 19.4°F-7.0°C 10.9°F-11.7°C 69% Calm Calm -- 29.98 in1015.2 mb 0.00 in0.0 mm 0.00 in0.0 mm 0.06 in1.5 mm
05:40 PM 19.3°F-7.1°C 10.4°F-12.0°C 68% Calm Calm -- 29.99 in1015.6 mb 0.00 in0.0 mm 0.00 in0.0 mm 0.06 in1.5 mm
05:45 PM 19.2°F-7.1°C 10.4°F-12.0°C 68% Calm Calm -- 29.99 in1015.6 mb 0.00 in0.0 mm 0.00 in0.0 mm 0.06 in1.5 mm
05:50 PM 19.0°F-7.2°C 10.6°F-11.9°C 69% Calm Calm -- 30.00 in1015.9 mb 0.00 in0.0 mm 0.00 in0.0 mm 0.06 in1.5 mm
05:55 PM 18.8°F-7.3°C 10.4°F-12.0°C 69% Calm Calm -- 29.99 in1015.6 mb 0.00 in0.0 mm 0.00 in0.0 mm 0.06 in1.5 mm
06:00 PM 18.7°F-7.4°C 9.9°F-12.3°C 68% Calm Calm -- 30.00 in1015.9 mb 0.00 in0.0 mm 0.00 in0.0 mm 0.06 in1.5 mm
06:05 PM 18.6°F-7.4°C 10.2°F-12.1°C 69% Calm Calm -- 30.00 in1015.9 mb 0.00 in0.0 mm 0.00 in0.0 mm 0.06 in1.5 mm
06:10 PM 18.5°F-7.5°C 9.7°F-12.4°C 68% Calm Calm -- 30.01 in1016.3 mb 0.00 in0.0 mm 0.00 in0.0 mm 0.06 in1.5 mm
06:15 PM 18.3°F-7.6°C 9.5°F-12.5°C 68% Calm Calm -- 30.01 in1016.3 mb 0.00 in0.0 mm 0.00 in0.0 mm 0.06 in1.5 mm
06:20 PM 18.2°F-7.7°C 9.3°F-12.6°C 68% Calm Calm -- 30.02 in1016.6 mb 0.00 in0.0 mm 0.00 in0.0 mm 0.06 in1.5 mm
06:25 PM 18.0°F-7.8°C 9.5°F-12.5°C 69% Calm Calm -- 30.02 in1016.6 mb 0.00 in0.0 mm 0.00 in0.0 mm 0.06 in1.5 mm
06:30 PM 17.9°F-7.8°C 9.1°F-12.7°C 68% Calm Calm -- 30.02 in1016.6 mb 0.00 in0.0 mm 0.00 in0.0 mm 0.06 in1.5 mm
06:35 PM 17.8°F-7.9°C 9.0°F-12.8°C 68% Calm Calm -- 30.03 in1016.9 mb 0.00 in0.0 mm 0.00 in0.0 mm 0.06 in1.5 mm
06:40 PM 17.8°F-7.9°C 9.0°F-12.8°C 68% Calm Calm -- 30.03 in1016.9 mb 0.00 in0.0 mm 0.00 in0.0 mm 0.06 in1.5 mm
06:45 PM 17.7°F-7.9°C 9.0°F-12.8°C 68% Calm Calm -- 30.04 in1017.3 mb 0.00 in0.0 mm 0.00 in0.0 mm 0.06 in1.5 mm
06:50 PM 17.5°F-8.1°C 8.8°F-12.9°C 68% Calm Calm -- 30.04 in1017.3 mb 0.00 in0.0 mm 0.00 in0.0 mm 0.06 in1.5 mm
06:55 PM 17.4°F-8.1°C 8.8°F-12.9°C 68% Calm Calm -- 30.04 in1017.3 mb 0.00 in0.0 mm 0.00 in0.0 mm 0.06 in1.5 mm
07:00 PM 17.3°F-8.2°C 8.6°F-13.0°C 68% Calm Calm -- 30.05 in1017.6 mb 0.00 in0.0 mm 0.00 in0.0 mm 0.06 in1.5 mm
07:05 PM 17.2°F-8.2°C 8.2°F-13.2°C 67% Calm Calm -- 30.05 in1017.6 mb 0.00 in0.0 mm 0.00 in0.0 mm 0.06 in1.5 mm
07:10 PM 17.1°F-8.3°C 8.1°F-13.3°C 67% Calm Calm -- 30.06 in1017.9 mb 0.00 in0.0 mm 0.00 in0.0 mm 0.06 in1.5 mm
07:15 PM 17.0°F-8.3°C 8.1°F-13.3°C 67% Calm Calm -- 30.06 in1017.9 mb 0.00 in0.0 mm 0.00 in0.0 mm 0.06 in1.5 mm
07:20 PM 16.9°F-8.4°C 7.9°F-13.4°C 67% Calm Calm -- 30.06 in1017.9 mb 0.00 in0.0 mm 0.00 in0.0 mm 0.06 in1.5 mm
07:25 PM 16.7°F-8.5°C 7.7°F-13.5°C 67% Calm Calm -- 30.06 in1017.9 mb 0.00 in0.0 mm 0.00 in0.0 mm 0.06 in1.5 mm
07:30 PM 16.7°F-8.5°C 7.7°F-13.5°C 67% Calm Calm -- 30.07 in1018.3 mb 0.00 in0.0 mm 0.00 in0.0 mm 0.06 in1.5 mm
07:35 PM 16.3°F-8.7°C 7.0°F-13.9°C 66% Calm Calm -- 30.07 in1018.3 mb 0.00 in0.0 mm 0.00 in0.0 mm 0.06 in1.5 mm
07:40 PM 16.1°F-8.8°C 6.8°F-14.0°C 66% Calm Calm -- 30.08 in1018.6 mb 0.00 in0.0 mm 0.00 in0.0 mm 0.06 in1.5 mm
07:45 PM 16.0°F-8.9°C 7.0°F-13.9°C 67% Calm Calm -- 30.08 in1018.6 mb 0.00 in0.0 mm 0.00 in0.0 mm 0.06 in1.5 mm
07:50 PM 15.9°F-8.9°C 7.0°F-13.9°C 67% Calm Calm -- 30.09 in1019.0 mb 0.00 in0.0 mm 0.00 in0.0 mm 0.06 in1.5 mm
07:55 PM 15.7°F-9.1°C 6.3°F-14.3°C 66% Calm Calm -- 30.09 in1019.0 mb 0.00 in0.0 mm 0.00 in0.0 mm 0.06 in1.5 mm
08:00 PM 15.4°F-9.2°C 6.1°F-14.4°C 66% Calm Calm -- 30.10 in1019.3 mb 0.00 in0.0 mm 0.00 in0.0 mm 0.06 in1.5 mm
08:05 PM 15.1°F-9.4°C 5.7°F-14.6°C 66% Calm Calm -- 30.10 in1019.3 mb 0.00 in0.0 mm 0.00 in0.0 mm 0.06 in1.5 mm
08:10 PM 14.7°F-9.6°C 5.2°F-14.9°C 65% Calm Calm -- 30.11 in1019.6 mb 0.00 in0.0 mm 0.00 in0.0 mm 0.06 in1.5 mm
08:15 PM 14.4°F-9.8°C 5.2°F-14.9°C 66% Calm Calm -- 30.11 in1019.6 mb 0.00 in0.0 mm 0.00 in0.0 mm 0.06 in1.5 mm
08:20 PM 14.2°F-9.9°C 5.0°F-15.0°C 66% Calm Calm -- 30.11 in1019.6 mb 0.00 in0.0 mm 0.00 in0.0 mm 0.06 in1.5 mm
08:25 PM 14.1°F-9.9°C 5.0°F-15.0°C 66% Calm Calm -- 30.12 in1020.0 mb 0.00 in0.0 mm 0.00 in0.0 mm 0.06 in1.5 mm
08:30 PM 14.0°F-10.0°C 4.8°F-15.1°C 66% Calm Calm -- 30.12 in1020.0 mb 0.00 in0.0 mm 0.00 in0.0 mm 0.06 in1.5 mm
08:35 PM 13.9°F-10.1°C 5.0°F-15.0°C 67% Calm Calm -- 30.12 in1020.0 mb 0.00 in0.0 mm 0.00 in0.0 mm 0.06 in1.5 mm
08:40 PM 13.9°F-10.1°C 5.0°F-15.0°C 67% Calm Calm -- 30.13 in1020.3 mb 0.00 in0.0 mm 0.00 in0.0 mm 0.06 in1.5 mm
08:45 PM 13.8°F-10.1°C 5.2°F-14.9°C 68% Calm Calm -- 30.13 in1020.3 mb 0.00 in0.0 mm 0.00 in0.0 mm 0.06 in1.5 mm
08:50 PM 13.8°F-10.1°C 5.2°F-14.9°C 68% Calm Calm -- 30.13 in1020.3 mb 0.00 in0.0 mm 0.00 in0.0 mm 0.06 in1.5 mm
08:55 PM 13.6°F-10.2°C 4.5°F-15.3°C 66% Calm Calm -- 30.13 in1020.3 mb 0.00 in0.0 mm 0.00 in0.0 mm 0.06 in1.5 mm
09:00 PM 13.3°F-10.4°C 3.4°F-15.9°C 64% Calm Calm -- 30.14 in1020.7 mb 0.00 in0.0 mm 0.00 in0.0 mm 0.06 in1.5 mm
09:05 PM 13.1°F-10.5°C 3.2°F-16.0°C 64% Calm Calm -- 30.15 in1021.0 mb 0.00 in0.0 mm 0.00 in0.0 mm 0.06 in1.5 mm
09:10 PM 12.9°F-10.6°C 3.0°F-16.1°C 64% Calm Calm -- 30.15 in1021.0 mb 0.00 in0.0 mm 0.00 in0.0 mm 0.06 in1.5 mm
09:15 PM 12.7°F-10.7°C 2.8°F-16.2°C 64% Calm Calm -- 30.14 in1020.7 mb 0.00 in0.0 mm 0.00 in0.0 mm 0.06 in1.5 mm
09:20 PM 12.5°F-10.8°C 2.7°F-16.3°C 64% Calm Calm -- 30.15 in1021.0 mb 0.00 in0.0 mm 0.00 in0.0 mm 0.06 in1.5 mm
09:25 PM 12.5°F-10.8°C 3.0°F-16.1°C 65% Calm Calm -- 30.15 in1021.0 mb 0.00 in0.0 mm 0.00 in0.0 mm 0.06 in1.5 mm
09:30 PM 12.4°F-10.9°C 2.8°F-16.2°C 65% Calm Calm -- 30.15 in1021.0 mb 0.00 in0.0 mm 0.00 in0.0 mm 0.06 in1.5 mm
09:35 PM 12.3°F-10.9°C 2.8°F-16.2°C 65% Calm Calm -- 30.15 in1021.0 mb 0.00 in0.0 mm 0.00 in0.0 mm 0.06 in1.5 mm
09:40 PM 12.3°F-10.9°C 3.2°F-16.0°C 66% Calm Calm -- 30.16 in1021.3 mb 0.00 in0.0 mm 0.00 in0.0 mm 0.06 in1.5 mm
09:45 PM 12.2°F-11.0°C 3.0°F-16.1°C 66% Calm Calm -- 30.16 in1021.3 mb 0.00 in0.0 mm 0.00 in0.0 mm 0.06 in1.5 mm
09:50 PM 12.2°F-11.0°C 3.0°F-16.1°C 66% Calm Calm -- 30.16 in1021.3 mb 0.00 in0.0 mm 0.00 in0.0 mm 0.06 in1.5 mm
09:55 PM 12.2°F-11.0°C 3.4°F-15.9°C 67% Calm Calm -- 30.16 in1021.3 mb 0.00 in0.0 mm 0.00 in0.0 mm 0.06 in1.5 mm
10:00 PM 12.2°F-11.0°C 3.4°F-15.9°C 67% Calm Calm -- 30.16 in1021.3 mb 0.00 in0.0 mm 0.00 in0.0 mm 0.06 in1.5 mm
10:05 PM 12.1°F-11.1°C 3.6°F-15.8°C 68% Calm Calm -- 30.16 in1021.3 mb 0.00 in0.0 mm 0.00 in0.0 mm 0.06 in1.5 mm
10:10 PM 12.0°F-11.1°C 3.6°F-15.8°C 68% Calm Calm -- 30.16 in1021.3 mb 0.00 in0.0 mm 0.00 in0.0 mm 0.06 in1.5 mm
10:15 PM 12.0°F-11.1°C 3.6°F-15.8°C 68% Calm Calm -- 30.16 in1021.3 mb 0.00 in0.0 mm 0.00 in0.0 mm 0.06 in1.5 mm
10:20 PM 12.1°F-11.1°C 3.6°F-15.8°C 68% Calm Calm -- 30.16 in1021.3 mb 0.00 in0.0 mm 0.00 in0.0 mm 0.06 in1.5 mm
10:25 PM 12.1°F-11.1°C 3.6°F-15.8°C 68% Calm Calm -- 30.16 in1021.3 mb 0.00 in0.0 mm 0.00 in0.0 mm 0.06 in1.5 mm
10:30 PM 12.1°F-11.1°C 3.6°F-15.8°C 68% Calm Calm -- 30.16 in1021.3 mb 0.00 in0.0 mm 0.00 in0.0 mm 0.06 in1.5 mm
10:35 PM 12.1°F-11.1°C 3.6°F-15.8°C 68% Calm Calm -- 30.17 in1021.7 mb 0.00 in0.0 mm 0.00 in0.0 mm 0.06 in1.5 mm
10:40 PM 12.2°F-11.0°C 3.4°F-15.9°C 67% Calm Calm -- 30.17 in1021.7 mb 0.00 in0.0 mm 0.00 in0.0 mm 0.06 in1.5 mm
10:45 PM 12.2°F-11.0°C 3.7°F-15.7°C 68% Calm Calm -- 30.17 in1021.7 mb 0.00 in0.0 mm 0.00 in0.0 mm 0.06 in1.5 mm
10:50 PM 12.2°F-11.0°C 3.7°F-15.7°C 68% Calm Calm -- 30.16 in1021.3 mb 0.00 in0.0 mm 0.00 in0.0 mm 0.06 in1.5 mm
10:55 PM 12.1°F-11.1°C 3.6°F-15.8°C 68% Calm Calm -- 30.16 in1021.3 mb 0.00 in0.0 mm 0.00 in0.0 mm 0.06 in1.5 mm
11:00 PM 12.2°F-11.0°C 3.7°F-15.7°C 68% Calm Calm -- 30.17 in1021.7 mb 0.00 in0.0 mm 0.00 in0.0 mm 0.06 in1.5 mm
11:05 PM 12.2°F-11.0°C 3.7°F-15.7°C 68% Calm Calm -- 30.17 in1021.7 mb 0.00 in0.0 mm 0.00 in0.0 mm 0.06 in1.5 mm
11:10 PM 12.2°F-11.0°C 3.7°F-15.7°C 68% Calm Calm -- 30.17 in1021.7 mb 0.00 in0.0 mm 0.00 in0.0 mm 0.06 in1.5 mm
11:15 PM 12.2°F-11.0°C 3.4°F-15.9°C 67% Calm Calm -- 30.17 in1021.7 mb 0.00 in0.0 mm 0.00 in0.0 mm 0.06 in1.5 mm
11:20 PM 12.1°F-11.1°C 3.2°F-16.0°C 67% Calm Calm -- 30.17 in1021.7 mb 0.00 in0.0 mm 0.00 in0.0 mm 0.06 in1.5 mm
11:25 PM 12.0°F-11.1°C 3.6°F-15.8°C 68% Calm Calm -- 30.17 in1021.7 mb 0.00 in0.0 mm 0.00 in0.0 mm 0.06 in1.5 mm
11:30 PM 11.9°F-11.2°C 3.0°F-16.1°C 67% Calm Calm -- 30.17 in1021.7 mb 0.00 in0.0 mm 0.00 in0.0 mm 0.06 in1.5 mm
11:35 PM 11.8°F-11.2°C 3.0°F-16.1°C 67% Calm Calm -- 30.17 in1021.7 mb 0.00 in0.0 mm 0.00 in0.0 mm 0.06 in1.5 mm
11:40 PM 11.7°F-11.3°C 2.8°F-16.2°C 67% Calm Calm -- 30.17 in1021.7 mb 0.00 in0.0 mm 0.00 in0.0 mm 0.06 in1.5 mm
11:45 PM 11.6°F-11.3°C 2.8°F-16.2°C 67% Calm Calm -- 30.17 in1021.7 mb 0.00 in0.0 mm 0.00 in0.0 mm 0.06 in1.5 mm
11:50 PM 11.5°F-11.4°C 2.7°F-16.3°C 67% Calm Calm -- 30.17 in1021.7 mb 0.00 in0.0 mm 0.00 in0.0 mm 0.06 in1.5 mm
11:55 PM 11.4°F-11.4°C 2.7°F-16.3°C 67% Calm Calm -- 30.17 in1021.7 mb 0.00 in0.0 mm 0.00 in0.0 mm 0.06 in1.5 mm